sensor_id;sensor_type;location;lat;lon;timestamp;temperature;humidity
21271;DHT22;10795;50.796;3.860;2022-08-02T00:01:43;18.30;99.90
21271;DHT22;10795;50.796;3.860;2022-08-02T00:04:09;18.20;99.90
21271;DHT22;10795;50.796;3.860;2022-08-02T00:06:36;18.20;99.90
21271;DHT22;10795;50.796;3.860;2022-08-02T00:09:03;18.10;99.90
21271;DHT22;10795;50.796;3.860;2022-08-02T00:11:29;18.00;99.90
21271;DHT22;10795;50.796;3.860;2022-08-02T00:13:55;17.80;99.90
21271;DHT22;10795;50.796;3.860;2022-08-02T00:16:20;17.80;99.90
21271;DHT22;10795;50.796;3.860;2022-08-02T00:18:46;17.50;99.90
21271;DHT22;10795;50.796;3.860;2022-08-02T00:21:12;17.50;99.90
21271;DHT22;10795;50.796;3.860;2022-08-02T00:23:38;17.60;99.90
21271;DHT22;10795;50.796;3.860;2022-08-02T00:26:04;17.70;99.90
21271;DHT22;10795;50.796;3.860;2022-08-02T00:28:29;17.70;99.90
21271;DHT22;10795;50.796;3.860;2022-08-02T00:30:56;18.30;99.90
21271;DHT22;10795;50.796;3.860;2022-08-02T00:33:22;18.50;99.90
21271;DHT22;10795;50.796;3.860;2022-08-02T00:35:48;18.10;99.90
21271;DHT22;10795;50.796;3.860;2022-08-02T00:38:14;17.90;99.90
21271;DHT22;10795;50.796;3.860;2022-08-02T00:40:43;17.80;99.90
21271;DHT22;10795;50.796;3.860;2022-08-02T00:43:11;17.80;99.90
21271;DHT22;10795;50.796;3.860;2022-08-02T00:45:38;17.60;99.90
21271;DHT22;10795;50.796;3.860;2022-08-02T00:48:07;17.70;99.90
21271;DHT22;10795;50.796;3.860;2022-08-02T00:50:33;18.00;99.90
21271;DHT22;10795;50.796;3.860;2022-08-02T00:53:00;18.40;99.90
21271;DHT22;10795;50.796;3.860;2022-08-02T00:55:26;18.00;99.90
21271;DHT22;10795;50.796;3.860;2022-08-02T00:57:53;17.90;99.90
21271;DHT22;10795;50.796;3.860;2022-08-02T01:00:19;17.80;99.90
21271;DHT22;10795;50.796;3.860;2022-08-02T01:02:45;17.60;99.90
21271;DHT22;10795;50.796;3.860;2022-08-02T01:05:11;17.60;99.90
21271;DHT22;10795;50.796;3.860;2022-08-02T01:07:38;17.60;99.90
21271;DHT22;10795;50.796;3.860;2022-08-02T01:10:04;17.70;99.90
21271;DHT22;10795;50.796;3.860;2022-08-02T01:12:30;17.60;99.90
21271;DHT22;10795;50.796;3.860;2022-08-02T01:15:00;17.70;99.90
21271;DHT22;10795;50.796;3.860;2022-08-02T01:28:29;17.70;99.90
21271;DHT22;10795;50.796;3.860;2022-08-02T01:36:39;17.40;99.90
21271;DHT22;10795;50.796;3.860;2022-08-02T01:39:07;17.30;99.90
21271;DHT22;10795;50.796;3.860;2022-08-02T01:41:35;17.50;99.90
21271;DHT22;10795;50.796;3.860;2022-08-02T01:44:02;17.80;99.90
21271;DHT22;10795;50.796;3.860;2022-08-02T01:46:30;17.80;99.90
21271;DHT22;10795;50.796;3.860;2022-08-02T01:49:00;17.70;99.90
21271;DHT22;10795;50.796;3.860;2022-08-02T01:51:28;17.60;99.90
21271;DHT22;10795;50.796;3.860;2022-08-02T01:54:15;17.60;99.90
21271;DHT22;10795;50.796;3.860;2022-08-02T01:56:42;17.60;99.90
21271;DHT22;10795;50.796;3.860;2022-08-02T01:59:12;17.40;99.90
21271;DHT22;10795;50.796;3.860;2022-08-02T02:01:39;17.50;99.90
21271;DHT22;10795;50.796;3.860;2022-08-02T02:04:07;17.40;99.90
21271;DHT22;10795;50.796;3.860;2022-08-02T02:06:35;17.40;99.90
21271;DHT22;10795;50.796;3.860;2022-08-02T02:09:01;17.30;99.90
21271;DHT22;10795;50.796;3.860;2022-08-02T02:11:28;17.30;99.90
21271;DHT22;10795;50.796;3.860;2022-08-02T02:13:57;17.20;99.90
21271;DHT22;10795;50.796;3.860;2022-08-02T02:16:23;17.30;99.90
21271;DHT22;10795;50.796;3.860;2022-08-02T02:18:49;17.80;99.90
21271;DHT22;10795;50.796;3.860;2022-08-02T02:21:16;17.70;99.90
21271;DHT22;10795;50.796;3.860;2022-08-02T02:23:42;17.80;99.90
21271;DHT22;10795;50.796;3.860;2022-08-02T02:26:10;17.50;99.90
21271;DHT22;10795;50.796;3.860;2022-08-02T02:28:38;17.30;99.90
21271;DHT22;10795;50.796;3.860;2022-08-02T02:31:06;17.10;99.90
21271;DHT22;10795;50.796;3.860;2022-08-02T02:33:36;17.10;99.90
21271;DHT22;10795;50.796;3.860;2022-08-02T02:36:04;17.10;99.90
21271;DHT22;10795;50.796;3.860;2022-08-02T02:38:33;17.10;99.90
21271;DHT22;10795;50.796;3.860;2022-08-02T02:41:04;17.10;99.90
21271;DHT22;10795;50.796;3.860;2022-08-02T02:43:33;17.20;99.90
21271;DHT22;10795;50.796;3.860;2022-08-02T02:46:01;17.10;99.90
21271;DHT22;10795;50.796;3.860;2022-08-02T02:48:28;16.70;99.90
21271;DHT22;10795;50.796;3.860;2022-08-02T02:50:54;16.80;99.90
21271;DHT22;10795;50.796;3.860;2022-08-02T02:53:21;16.90;99.90
21271;DHT22;10795;50.796;3.860;2022-08-02T02:55:48;17.00;99.90
21271;DHT22;10795;50.796;3.860;2022-08-02T02:58:14;17.10;99.90
21271;DHT22;10795;50.796;3.860;2022-08-02T03:00:40;17.10;99.90
21271;DHT22;10795;50.796;3.860;2022-08-02T03:03:25;17.00;99.90
21271;DHT22;10795;50.796;3.860;2022-08-02T03:05:51;17.00;99.90
21271;DHT22;10795;50.796;3.860;2022-08-02T03:08:17;17.00;99.90
21271;DHT22;10795;50.796;3.860;2022-08-02T03:10:43;17.00;99.90
21271;DHT22;10795;50.796;3.860;2022-08-02T03:13:10;17.10;99.90
21271;DHT22;10795;50.796;3.860;2022-08-02T03:15:36;17.20;99.90
21271;DHT22;10795;50.796;3.860;2022-08-02T03:18:02;17.30;99.90
21271;DHT22;10795;50.796;3.860;2022-08-02T03:20:28;17.30;99.90
21271;DHT22;10795;50.796;3.860;2022-08-02T03:22:54;17.20;99.90
21271;DHT22;10795;50.796;3.860;2022-08-02T03:25:20;17.00;99.90
21271;DHT22;10795;50.796;3.860;2022-08-02T03:27:45;17.00;99.90
21271;DHT22;10795;50.796;3.860;2022-08-02T03:30:12;16.90;99.90
21271;DHT22;10795;50.796;3.860;2022-08-02T03:32:40;16.90;99.90
21271;DHT22;10795;50.796;3.860;2022-08-02T03:35:09;17.10;99.90
21271;DHT22;10795;50.796;3.860;2022-08-02T03:37:36;17.10;99.90
21271;DHT22;10795;50.796;3.860;2022-08-02T03:40:06;17.00;99.90
21271;DHT22;10795;50.796;3.860;2022-08-02T03:42:32;16.90;99.90
21271;DHT22;10795;50.796;3.860;2022-08-02T03:44:58;16.90;99.90
21271;DHT22;10795;50.796;3.860;2022-08-02T03:47:26;16.90;99.90
21271;DHT22;10795;50.796;3.860;2022-08-02T03:49:52;17.00;99.90
21271;DHT22;10795;50.796;3.860;2022-08-02T03:52:19;16.90;99.90
21271;DHT22;10795;50.796;3.860;2022-08-02T03:54:45;17.00;99.90
21271;DHT22;10795;50.796;3.860;2022-08-02T03:57:11;16.80;99.90
21271;DHT22;10795;50.796;3.860;2022-08-02T03:59:45;16.90;99.90
21271;DHT22;10795;50.796;3.860;2022-08-02T04:02:11;16.90;99.90
21271;DHT22;10795;50.796;3.860;2022-08-02T04:04:38;16.80;99.90
21271;DHT22;10795;50.796;3.860;2022-08-02T04:07:04;16.70;99.90
21271;DHT22;10795;50.796;3.860;2022-08-02T04:09:30;16.40;99.90
21271;DHT22;10795;50.796;3.860;2022-08-02T04:11:56;16.50;99.90
21271;DHT22;10795;50.796;3.860;2022-08-02T04:14:22;16.60;99.90
21271;DHT22;10795;50.796;3.860;2022-08-02T04:16:53;16.70;99.90
21271;DHT22;10795;50.796;3.860;2022-08-02T04:19:37;16.80;99.90
21271;DHT22;10795;50.796;3.860;2022-08-02T04:22:06;16.80;99.90
21271;DHT22;10795;50.796;3.860;2022-08-02T04:24:38;16.80;99.90
21271;DHT22;10795;50.796;3.860;2022-08-02T04:27:06;16.90;99.90
21271;DHT22;10795;50.796;3.860;2022-08-02T04:29:34;16.90;99.90
21271;DHT22;10795;50.796;3.860;2022-08-02T04:32:02;17.00;99.90
21271;DHT22;10795;50.796;3.860;2022-08-02T04:34:29;16.80;99.90
21271;DHT22;10795;50.796;3.860;2022-08-02T04:36:56;16.70;99.90
21271;DHT22;10795;50.796;3.860;2022-08-02T04:39:23;16.60;99.90
21271;DHT22;10795;50.796;3.860;2022-08-02T04:41:49;16.50;99.90
21271;DHT22;10795;50.796;3.860;2022-08-02T04:44:14;16.50;99.90
21271;DHT22;10795;50.796;3.860;2022-08-02T04:46:41;16.50;99.90
21271;DHT22;10795;50.796;3.860;2022-08-02T04:49:07;16.50;99.90
21271;DHT22;10795;50.796;3.860;2022-08-02T04:51:34;16.50;99.90
21271;DHT22;10795;50.796;3.860;2022-08-02T04:54:02;16.40;99.90
21271;DHT22;10795;50.796;3.860;2022-08-02T04:56:28;16.50;99.90
21271;DHT22;10795;50.796;3.860;2022-08-02T04:58:53;16.60;99.90
21271;DHT22;10795;50.796;3.860;2022-08-02T05:01:19;16.70;99.90
21271;DHT22;10795;50.796;3.860;2022-08-02T05:03:45;17.10;99.90
21271;DHT22;10795;50.796;3.860;2022-08-02T05:06:11;17.50;99.90
21271;DHT22;10795;50.796;3.860;2022-08-02T05:08:36;17.90;99.90
21271;DHT22;10795;50.796;3.860;2022-08-02T05:11:02;18.10;99.90
21271;DHT22;10795;50.796;3.860;2022-08-02T05:13:28;18.50;99.90
21271;DHT22;10795;50.796;3.860;2022-08-02T05:15:56;18.50;99.90
21271;DHT22;10795;50.796;3.860;2022-08-02T05:18:23;18.90;99.90
21271;DHT22;10795;50.796;3.860;2022-08-02T05:20:49;18.40;99.90
21271;DHT22;10795;50.796;3.860;2022-08-02T05:23:15;18.00;99.90
21271;DHT22;10795;50.796;3.860;2022-08-02T05:25:40;17.90;99.90
21271;DHT22;10795;50.796;3.860;2022-08-02T05:28:06;17.90;99.90
21271;DHT22;10795;50.796;3.860;2022-08-02T05:30:32;18.20;99.90
21271;DHT22;10795;50.796;3.860;2022-08-02T05:32:57;18.50;99.90
21271;DHT22;10795;50.796;3.860;2022-08-02T05:35:23;18.50;99.90
21271;DHT22;10795;50.796;3.860;2022-08-02T05:37:50;18.40;99.90
21271;DHT22;10795;50.796;3.860;2022-08-02T05:40:17;18.60;99.90
21271;DHT22;10795;50.796;3.860;2022-08-02T05:42:43;18.90;99.90
21271;DHT22;10795;50.796;3.860;2022-08-02T05:45:09;19.00;99.90
21271;DHT22;10795;50.796;3.860;2022-08-02T05:47:35;18.90;99.90
21271;DHT22;10795;50.796;3.860;2022-08-02T05:50:02;18.80;99.90
21271;DHT22;10795;50.796;3.860;2022-08-02T05:55:26;18.80;99.90
21271;DHT22;10795;50.796;3.860;2022-08-02T05:58:18;18.90;99.90
21271;DHT22;10795;50.796;3.860;2022-08-02T06:00:48;19.80;99.90
21271;DHT22;10795;50.796;3.860;2022-08-02T06:06:03;19.90;99.90
21271;DHT22;10795;50.796;3.860;2022-08-02T06:08:38;19.70;99.90
21271;DHT22;10795;50.796;3.860;2022-08-02T06:11:11;19.70;99.90
21271;DHT22;10795;50.796;3.860;2022-08-02T06:13:40;19.90;99.90
21271;DHT22;10795;50.796;3.860;2022-08-02T06:16:06;19.80;99.90
21271;DHT22;10795;50.796;3.860;2022-08-02T06:18:32;20.30;99.90
21271;DHT22;10795;50.796;3.860;2022-08-02T06:21:01;20.10;99.90
21271;DHT22;10795;50.796;3.860;2022-08-02T06:23:27;20.20;99.90
21271;DHT22;10795;50.796;3.860;2022-08-02T06:25:56;19.90;99.90
21271;DHT22;10795;50.796;3.860;2022-08-02T06:28:22;20.00;99.90
21271;DHT22;10795;50.796;3.860;2022-08-02T06:30:48;20.10;99.90
21271;DHT22;10795;50.796;3.860;2022-08-02T06:33:14;20.30;99.90
21271;DHT22;10795;50.796;3.860;2022-08-02T06:36:03;20.20;99.90
21271;DHT22;10795;50.796;3.860;2022-08-02T06:38:38;20.20;99.90
21271;DHT22;10795;50.796;3.860;2022-08-02T06:46:06;20.60;99.90
21271;DHT22;10795;50.796;3.860;2022-08-02T06:48:32;20.80;99.90
21271;DHT22;10795;50.796;3.860;2022-08-02T06:51:02;21.10;99.90
21271;DHT22;10795;50.796;3.860;2022-08-02T06:53:27;20.70;99.90
21271;DHT22;10795;50.796;3.860;2022-08-02T06:55:53;20.90;99.90
21271;DHT22;10795;50.796;3.860;2022-08-02T06:58:19;21.30;99.90
21271;DHT22;10795;50.796;3.860;2022-08-02T07:00:45;21.10;99.90
21271;DHT22;10795;50.796;3.860;2022-08-02T07:03:11;21.60;99.90
21271;DHT22;10795;50.796;3.860;2022-08-02T07:05:37;21.10;99.90
21271;DHT22;10795;50.796;3.860;2022-08-02T07:08:03;21.40;99.90
21271;DHT22;10795;50.796;3.860;2022-08-02T07:10:29;21.80;99.90
21271;DHT22;10795;50.796;3.860;2022-08-02T07:12:54;22.00;99.90
21271;DHT22;10795;50.796;3.860;2022-08-02T07:15:20;22.20;99.90
21271;DHT22;10795;50.796;3.860;2022-08-02T07:17:46;22.10;99.90
21271;DHT22;10795;50.796;3.860;2022-08-02T07:20:12;21.90;99.90
21271;DHT22;10795;50.796;3.860;2022-08-02T07:22:39;22.20;99.90
21271;DHT22;10795;50.796;3.860;2022-08-02T07:25:06;22.60;99.90
21271;DHT22;10795;50.796;3.860;2022-08-02T07:27:32;22.60;99.90
21271;DHT22;10795;50.796;3.860;2022-08-02T07:29:59;23.30;99.90
21271;DHT22;10795;50.796;3.860;2022-08-02T07:32:29;23.00;99.90
21271;DHT22;10795;50.796;3.860;2022-08-02T07:34:57;22.90;99.90
21271;DHT22;10795;50.796;3.860;2022-08-02T07:37:28;22.80;99.90
21271;DHT22;10795;50.796;3.860;2022-08-02T07:39:54;23.40;99.90
21271;DHT22;10795;50.796;3.860;2022-08-02T07:42:21;23.10;99.90
21271;DHT22;10795;50.796;3.860;2022-08-02T07:44:46;23.50;99.90
21271;DHT22;10795;50.796;3.860;2022-08-02T07:47:12;24.30;99.90
21271;DHT22;10795;50.796;3.860;2022-08-02T07:49:38;23.90;99.90
21271;DHT22;10795;50.796;3.860;2022-08-02T07:52:04;24.00;99.90
21271;DHT22;10795;50.796;3.860;2022-08-02T07:54:34;24.30;99.90
21271;DHT22;10795;50.796;3.860;2022-08-02T07:57:00;24.30;99.90
21271;DHT22;10795;50.796;3.860;2022-08-02T07:59:26;24.30;99.90
21271;DHT22;10795;50.796;3.860;2022-08-02T08:01:52;24.90;99.90
21271;DHT22;10795;50.796;3.860;2022-08-02T08:04:18;25.00;99.90
21271;DHT22;10795;50.796;3.860;2022-08-02T08:06:44;25.20;99.90
21271;DHT22;10795;50.796;3.860;2022-08-02T08:09:13;25.20;99.90
21271;DHT22;10795;50.796;3.860;2022-08-02T08:11:39;25.20;99.90
21271;DHT22;10795;50.796;3.860;2022-08-02T08:14:05;24.80;99.90
21271;DHT22;10795;50.796;3.860;2022-08-02T08:16:32;25.20;99.90
21271;DHT22;10795;50.796;3.860;2022-08-02T08:18:57;25.10;99.90
21271;DHT22;10795;50.796;3.860;2022-08-02T08:21:23;24.70;99.90
21271;DHT22;10795;50.796;3.860;2022-08-02T08:23:49;24.60;99.90
21271;DHT22;10795;50.796;3.860;2022-08-02T08:26:15;25.20;99.90
21271;DHT22;10795;50.796;3.860;2022-08-02T08:28:41;25.20;99.90
21271;DHT22;10795;50.796;3.860;2022-08-02T08:31:07;25.00;99.90
21271;DHT22;10795;50.796;3.860;2022-08-02T08:33:32;25.60;99.90
21271;DHT22;10795;50.796;3.860;2022-08-02T08:35:58;26.00;99.90
21271;DHT22;10795;50.796;3.860;2022-08-02T08:38:24;25.40;99.90
21271;DHT22;10795;50.796;3.860;2022-08-02T08:40:50;25.40;99.90
21271;DHT22;10795;50.796;3.860;2022-08-02T08:43:16;26.20;99.90
21271;DHT22;10795;50.796;3.860;2022-08-02T08:45:46;26.20;99.90
21271;DHT22;10795;50.796;3.860;2022-08-02T08:48:14;25.90;99.90
21271;DHT22;10795;50.796;3.860;2022-08-02T08:50:48;26.00;99.90
21271;DHT22;10795;50.796;3.860;2022-08-02T08:53:16;26.10;99.90
21271;DHT22;10795;50.796;3.860;2022-08-02T08:55:42;26.00;99.90
21271;DHT22;10795;50.796;3.860;2022-08-02T08:58:10;26.40;99.90
21271;DHT22;10795;50.796;3.860;2022-08-02T09:00:36;26.60;99.90
21271;DHT22;10795;50.796;3.860;2022-08-02T09:03:03;26.80;99.90
21271;DHT22;10795;50.796;3.860;2022-08-02T09:05:30;26.20;99.90
21271;DHT22;10795;50.796;3.860;2022-08-02T09:07:55;26.10;99.90
21271;DHT22;10795;50.796;3.860;2022-08-02T09:10:43;26.70;99.90
21271;DHT22;10795;50.796;3.860;2022-08-02T09:15:42;27.10;99.90
21271;DHT22;10795;50.796;3.860;2022-08-02T09:18:09;26.70;99.90
21271;DHT22;10795;50.796;3.860;2022-08-02T09:20:55;26.60;99.90
21271;DHT22;10795;50.796;3.860;2022-08-02T09:23:24;27.60;99.90
21271;DHT22;10795;50.796;3.860;2022-08-02T09:25:57;26.90;99.90
21271;DHT22;10795;50.796;3.860;2022-08-02T09:28:33;26.90;99.90
21271;DHT22;10795;50.796;3.860;2022-08-02T09:31:10;26.80;99.90
21271;DHT22;10795;50.796;3.860;2022-08-02T09:33:38;27.10;99.90
21271;DHT22;10795;50.796;3.860;2022-08-02T09:36:06;26.70;99.90
21271;DHT22;10795;50.796;3.860;2022-08-02T09:38:33;26.90;99.90
21271;DHT22;10795;50.796;3.860;2022-08-02T09:40:59;26.80;99.90
21271;DHT22;10795;50.796;3.860;2022-08-02T09:43:39;27.20;99.90
21271;DHT22;10795;50.796;3.860;2022-08-02T09:46:15;27.10;99.90
21271;DHT22;10795;50.796;3.860;2022-08-02T09:48:49;27.60;99.90
21271;DHT22;10795;50.796;3.860;2022-08-02T09:53:50;27.30;99.90
21271;DHT22;10795;50.796;3.860;2022-08-02T09:56:17;27.60;99.90
21271;DHT22;10795;50.796;3.860;2022-08-02T09:58:43;27.60;99.90
21271;DHT22;10795;50.796;3.860;2022-08-02T10:01:09;27.50;99.90
21271;DHT22;10795;50.796;3.860;2022-08-02T10:03:35;27.70;99.90
21271;DHT22;10795;50.796;3.860;2022-08-02T10:06:01;27.40;99.90
21271;DHT22;10795;50.796;3.860;2022-08-02T10:08:28;27.50;99.90
21271;DHT22;10795;50.796;3.860;2022-08-02T10:10:54;27.90;99.90
21271;DHT22;10795;50.796;3.860;2022-08-02T10:13:33;28.60;99.90
21271;DHT22;10795;50.796;3.860;2022-08-02T10:16:00;28.80;99.90
21271;DHT22;10795;50.796;3.860;2022-08-02T10:18:27;28.10;99.90
21271;DHT22;10795;50.796;3.860;2022-08-02T10:20:55;27.70;99.90
21271;DHT22;10795;50.796;3.860;2022-08-02T10:23:24;27.30;99.90
21271;DHT22;10795;50.796;3.860;2022-08-02T10:25:52;28.10;99.90
21271;DHT22;10795;50.796;3.860;2022-08-02T10:28:26;28.10;99.90
21271;DHT22;10795;50.796;3.860;2022-08-02T10:31:04;27.70;99.90
21271;DHT22;10795;50.796;3.860;2022-08-02T10:33:33;27.20;99.90
21271;DHT22;10795;50.796;3.860;2022-08-02T10:36:00;27.50;99.90
21271;DHT22;10795;50.796;3.860;2022-08-02T10:38:27;27.90;99.90
21271;DHT22;10795;50.796;3.860;2022-08-02T10:40:55;27.80;99.90
21271;DHT22;10795;50.796;3.860;2022-08-02T10:46:24;27.30;99.90
21271;DHT22;10795;50.796;3.860;2022-08-02T10:49:02;27.90;99.90
21271;DHT22;10795;50.796;3.860;2022-08-02T10:54:24;29.40;99.90
21271;DHT22;10795;50.796;3.860;2022-08-02T10:56:53;29.50;99.90
21271;DHT22;10795;50.796;3.860;2022-08-02T10:59:30;28.50;99.90
21271;DHT22;10795;50.796;3.860;2022-08-02T11:01:58;28.00;99.90
21271;DHT22;10795;50.796;3.860;2022-08-02T11:07:30;28.60;99.90
21271;DHT22;10795;50.796;3.860;2022-08-02T11:09:52;29.10;99.90
21271;DHT22;10795;50.796;3.860;2022-08-02T11:12:19;29.30;99.90
21271;DHT22;10795;50.796;3.860;2022-08-02T11:15:00;28.80;99.90
21271;DHT22;10795;50.796;3.860;2022-08-02T11:17:52;28.50;99.90
21271;DHT22;10795;50.796;3.860;2022-08-02T11:20:20;28.40;99.90
21271;DHT22;10795;50.796;3.860;2022-08-02T11:22:47;28.70;99.90
21271;DHT22;10795;50.796;3.860;2022-08-02T11:27:49;28.80;99.90
21271;DHT22;10795;50.796;3.860;2022-08-02T11:30:16;28.80;99.90
21271;DHT22;10795;50.796;3.860;2022-08-02T11:32:41;29.00;99.90
21271;DHT22;10795;50.796;3.860;2022-08-02T11:35:07;29.10;99.90
21271;DHT22;10795;50.796;3.860;2022-08-02T11:37:51;28.70;99.90
21271;DHT22;10795;50.796;3.860;2022-08-02T11:40:17;29.00;99.90
21271;DHT22;10795;50.796;3.860;2022-08-02T11:42:45;28.60;99.90
21271;DHT22;10795;50.796;3.860;2022-08-02T11:45:14;28.20;99.90
21271;DHT22;10795;50.796;3.860;2022-08-02T11:47:51;28.90;99.90
21271;DHT22;10795;50.796;3.860;2022-08-02T11:50:18;28.50;99.90
21271;DHT22;10795;50.796;3.860;2022-08-02T11:52:45;28.20;99.90
21271;DHT22;10795;50.796;3.860;2022-08-02T11:55:11;28.10;99.90
21271;DHT22;10795;50.796;3.860;2022-08-02T11:57:38;28.70;99.90
21271;DHT22;10795;50.796;3.860;2022-08-02T12:00:15;29.40;99.90
21271;DHT22;10795;50.796;3.860;2022-08-02T12:02:45;28.70;99.90
21271;DHT22;10795;50.796;3.860;2022-08-02T12:05:18;28.10;99.90
21271;DHT22;10795;50.796;3.860;2022-08-02T12:07:45;28.20;99.90
21271;DHT22;10795;50.796;3.860;2022-08-02T12:10:16;28.90;99.90
21271;DHT22;10795;50.796;3.860;2022-08-02T12:12:50;28.70;99.90
21271;DHT22;10795;50.796;3.860;2022-08-02T12:17:54;29.00;99.90
21271;DHT22;10795;50.796;3.860;2022-08-02T12:20:39;29.00;99.90
21271;DHT22;10795;50.796;3.860;2022-08-02T12:23:05;29.30;99.90
21271;DHT22;10795;50.796;3.860;2022-08-02T12:25:31;29.30;99.90
21271;DHT22;10795;50.796;3.860;2022-08-02T12:28:18;29.30;99.90
21271;DHT22;10795;50.796;3.860;2022-08-02T12:30:56;29.20;99.90
21271;DHT22;10795;50.796;3.860;2022-08-02T12:33:25;29.30;99.90
21271;DHT22;10795;50.796;3.860;2022-08-02T12:35:51;29.80;99.90
21271;DHT22;10795;50.796;3.860;2022-08-02T12:38:17;29.60;99.90
21271;DHT22;10795;50.796;3.860;2022-08-02T12:40:42;29.80;99.90
21271;DHT22;10795;50.796;3.860;2022-08-02T12:43:19;30.40;99.90
21271;DHT22;10795;50.796;3.860;2022-08-02T12:45:53;30.20;99.90
21271;DHT22;10795;50.796;3.860;2022-08-02T12:48:37;30.80;99.90
21271;DHT22;10795;50.796;3.860;2022-08-02T12:51:29;30.60;99.90
21271;DHT22;10795;50.796;3.860;2022-08-02T12:54:18;29.90;99.90
21271;DHT22;10795;50.796;3.860;2022-08-02T12:56:46;30.40;99.90
21271;DHT22;10795;50.796;3.860;2022-08-02T12:59:12;30.40;99.90
21271;DHT22;10795;50.796;3.860;2022-08-02T13:01:38;30.40;99.90
21271;DHT22;10795;50.796;3.860;2022-08-02T13:04:04;30.50;99.90
21271;DHT22;10795;50.796;3.860;2022-08-02T13:06:30;31.00;99.90
21271;DHT22;10795;50.796;3.860;2022-08-02T13:08:56;30.80;99.90
21271;DHT22;10795;50.796;3.860;2022-08-02T13:11:25;31.00;99.90
21271;DHT22;10795;50.796;3.860;2022-08-02T13:13:51;31.20;99.90
21271;DHT22;10795;50.796;3.860;2022-08-02T13:16:17;31.40;99.90
21271;DHT22;10795;50.796;3.860;2022-08-02T13:18:42;31.50;99.90
21271;DHT22;10795;50.796;3.860;2022-08-02T13:21:10;31.50;99.90
21271;DHT22;10795;50.796;3.860;2022-08-02T13:23:36;31.30;99.90
21271;DHT22;10795;50.796;3.860;2022-08-02T13:26:03;31.40;99.90
21271;DHT22;10795;50.796;3.860;2022-08-02T13:28:29;30.80;99.90
21271;DHT22;10795;50.796;3.860;2022-08-02T13:30:55;30.40;99.90
21271;DHT22;10795;50.796;3.860;2022-08-02T13:33:21;31.00;99.90
21271;DHT22;10795;50.796;3.860;2022-08-02T13:35:48;30.70;99.90
21271;DHT22;10795;50.796;3.860;2022-08-02T13:38:14;30.80;99.90
21271;DHT22;10795;50.796;3.860;2022-08-02T13:40:40;30.90;99.90
21271;DHT22;10795;50.796;3.860;2022-08-02T13:43:25;30.80;99.90
21271;DHT22;10795;50.796;3.860;2022-08-02T13:45:51;31.00;99.90
21271;DHT22;10795;50.796;3.860;2022-08-02T13:48:17;31.60;99.90
21271;DHT22;10795;50.796;3.860;2022-08-02T13:50:42;31.90;99.90
21271;DHT22;10795;50.796;3.860;2022-08-02T13:53:08;31.50;99.90
21271;DHT22;10795;50.796;3.860;2022-08-02T13:55:34;31.30;99.90
21271;DHT22;10795;50.796;3.860;2022-08-02T13:58:00;30.70;99.90
21271;DHT22;10795;50.796;3.860;2022-08-02T14:00:26;30.80;99.90
21271;DHT22;10795;50.796;3.860;2022-08-02T14:02:52;31.10;99.90
21271;DHT22;10795;50.796;3.860;2022-08-02T14:05:17;31.50;99.90
21271;DHT22;10795;50.796;3.860;2022-08-02T14:07:43;31.20;99.90
21271;DHT22;10795;50.796;3.860;2022-08-02T14:10:09;30.90;99.90
21271;DHT22;10795;50.796;3.860;2022-08-02T14:12:36;30.30;99.90
21271;DHT22;10795;50.796;3.860;2022-08-02T14:15:02;30.40;99.90
21271;DHT22;10795;50.796;3.860;2022-08-02T14:17:28;30.80;99.90
21271;DHT22;10795;50.796;3.860;2022-08-02T14:19:53;31.20;99.90
21271;DHT22;10795;50.796;3.860;2022-08-02T14:22:19;30.80;99.90
21271;DHT22;10795;50.796;3.860;2022-08-02T14:24:45;30.60;99.90
21271;DHT22;10795;50.796;3.860;2022-08-02T14:27:10;30.80;99.90
21271;DHT22;10795;50.796;3.860;2022-08-02T14:29:36;30.50;99.90
21271;DHT22;10795;50.796;3.860;2022-08-02T14:32:02;30.50;99.90
21271;DHT22;10795;50.796;3.860;2022-08-02T14:34:28;30.30;99.90
21271;DHT22;10795;50.796;3.860;2022-08-02T14:36:55;30.30;99.90
21271;DHT22;10795;50.796;3.860;2022-08-02T14:39:21;30.20;99.90
21271;DHT22;10795;50.796;3.860;2022-08-02T14:41:47;30.60;99.90
21271;DHT22;10795;50.796;3.860;2022-08-02T14:44:13;30.70;99.90
21271;DHT22;10795;50.796;3.860;2022-08-02T14:46:39;30.30;99.90
21271;DHT22;10795;50.796;3.860;2022-08-02T14:49:07;30.50;99.90
21271;DHT22;10795;50.796;3.860;2022-08-02T14:51:34;30.00;99.90
21271;DHT22;10795;50.796;3.860;2022-08-02T14:54:02;30.50;99.90
21271;DHT22;10795;50.796;3.860;2022-08-02T14:56:28;30.40;99.90
21271;DHT22;10795;50.796;3.860;2022-08-02T14:58:54;30.80;99.90
21271;DHT22;10795;50.796;3.860;2022-08-02T15:01:20;30.50;99.90
21271;DHT22;10795;50.796;3.860;2022-08-02T15:03:45;30.00;99.90
21271;DHT22;10795;50.796;3.860;2022-08-02T15:06:11;30.30;99.90
21271;DHT22;10795;50.796;3.860;2022-08-02T15:08:37;30.40;99.90
21271;DHT22;10795;50.796;3.860;2022-08-02T15:11:03;30.40;99.90
21271;DHT22;10795;50.796;3.860;2022-08-02T15:13:28;30.40;99.90
21271;DHT22;10795;50.796;3.860;2022-08-02T15:15:54;30.30;99.90
21271;DHT22;10795;50.796;3.860;2022-08-02T15:18:20;30.30;99.90
21271;DHT22;10795;50.796;3.860;2022-08-02T15:20:46;30.60;99.90
21271;DHT22;10795;50.796;3.860;2022-08-02T15:23:13;30.70;99.90
21271;DHT22;10795;50.796;3.860;2022-08-02T15:25:38;30.40;99.90
21271;DHT22;10795;50.796;3.860;2022-08-02T15:28:04;30.40;99.90
21271;DHT22;10795;50.796;3.860;2022-08-02T15:30:35;30.40;99.90
21271;DHT22;10795;50.796;3.860;2022-08-02T15:33:04;30.40;99.90
21271;DHT22;10795;50.796;3.860;2022-08-02T15:35:31;30.00;99.90
21271;DHT22;10795;50.796;3.860;2022-08-02T15:37:57;30.30;99.90
21271;DHT22;10795;50.796;3.860;2022-08-02T15:40:23;30.00;99.90
21271;DHT22;10795;50.796;3.860;2022-08-02T15:42:49;29.90;99.90
21271;DHT22;10795;50.796;3.860;2022-08-02T15:45:15;29.80;99.90
21271;DHT22;10795;50.796;3.860;2022-08-02T15:47:41;29.50;99.90
21271;DHT22;10795;50.796;3.860;2022-08-02T15:50:07;29.40;99.90
21271;DHT22;10795;50.796;3.860;2022-08-02T15:52:32;29.50;99.90
21271;DHT22;10795;50.796;3.860;2022-08-02T15:54:58;29.60;99.90
21271;DHT22;10795;50.796;3.860;2022-08-02T15:57:24;29.40;99.90
21271;DHT22;10795;50.796;3.860;2022-08-02T15:59:50;29.10;99.90
21271;DHT22;10795;50.796;3.860;2022-08-02T16:02:18;29.30;99.90
21271;DHT22;10795;50.796;3.860;2022-08-02T16:04:45;29.20;99.90
21271;DHT22;10795;50.796;3.860;2022-08-02T16:07:11;29.40;99.90
21271;DHT22;10795;50.796;3.860;2022-08-02T16:09:37;29.40;99.90
21271;DHT22;10795;50.796;3.860;2022-08-02T16:12:03;29.50;99.90
21271;DHT22;10795;50.796;3.860;2022-08-02T16:14:34;29.90;99.90
21271;DHT22;10795;50.796;3.860;2022-08-02T16:17:00;29.80;99.90
21271;DHT22;10795;50.796;3.860;2022-08-02T16:19:26;29.50;99.90
21271;DHT22;10795;50.796;3.860;2022-08-02T16:21:52;29.30;99.90